createdAt,value
2018-12-24T00:00:29.722Z,77038.99
2018-12-24T00:02:55.657Z,77036.99
2018-12-24T00:05:24.767Z,77039.99
2018-12-24T00:07:55.740Z,77046.00
2018-12-24T00:10:21.639Z,77045.00
2018-12-24T00:12:50.607Z,77039.99
2018-12-24T00:15:19.657Z,77045.00
2018-12-24T00:17:48.634Z,77043.00
2018-12-24T00:20:17.639Z,77038.99
2018-12-24T00:22:46.588Z,77048.00
2018-12-24T00:25:15.527Z,77052.00
2018-12-24T00:27:41.416Z,77053.00
2018-12-24T00:30:10.431Z,77052.00
2018-12-24T00:32:39.331Z,77055.01
2018-12-24T00:35:08.271Z,77053.00
2018-12-24T00:37:34.172Z,77059.01
2018-12-24T00:40:03.480Z,77063.02
2018-12-24T00:42:29.688Z,77062.02
2018-12-24T00:44:58.862Z,77066.02
2018-12-24T00:47:27.798Z,77070.02
2018-12-24T00:49:57.291Z,77070.02
2018-12-24T00:52:25.492Z,77075.02
2018-12-24T00:54:51.393Z,77072.02
2018-12-24T00:57:17.293Z,77075.02
2018-12-24T00:59:43.669Z,77077.02
2018-12-24T01:02:09.945Z,77083.03
2018-12-24T01:04:35.840Z,77078.03
2018-12-24T01:07:04.771Z,77082.03
2018-12-24T01:09:33.723Z,77088.03
2018-12-24T01:12:02.807Z,77094.05
2018-12-24T01:14:31.750Z,77105.05
2018-12-24T01:17:00.935Z,77111.05
2018-12-24T01:19:29.833Z,77119.06
2018-12-24T01:21:59.418Z,77117.06
2018-12-24T01:24:28.089Z,77129.07
2018-12-24T01:26:57.062Z,77140.08
2018-12-24T01:29:26.371Z,77143.08
2018-12-24T01:31:53.013Z,77142.08
2018-12-24T01:34:22.054Z,77143.08
2018-12-24T01:36:47.941Z,77138.08
2018-12-24T01:39:16.714Z,77141.08
2018-12-24T01:41:45.807Z,77140.08
2018-12-24T01:44:14.801Z,77144.09
2018-12-24T01:46:40.705Z,77145.09
2018-12-24T01:49:09.681Z,77147.09
2018-12-24T01:51:38.865Z,77148.09
2018-12-24T01:54:07.799Z,77147.09
2018-12-24T01:56:36.925Z,77155.09
2018-12-24T01:59:05.832Z,77151.09
2018-12-24T02:01:34.855Z,77152.09
2018-12-24T02:04:03.782Z,77158.09
2018-12-24T02:06:30.107Z,77153.09
2018-12-24T02:08:58.789Z,77161.09
2018-12-24T02:11:25.074Z,77163.10
2018-12-24T02:13:50.977Z,77159.09
2018-12-24T02:16:19.628Z,77166.11
2018-12-24T02:18:48.542Z,77163.10
2018-12-24T02:21:17.449Z,77167.11
2018-12-24T02:23:46.409Z,77172.11
2018-12-24T02:26:15.391Z,77183.12
2018-12-24T02:28:44.358Z,77185.13
2018-12-24T02:31:10.307Z,77190.13
2018-12-24T02:33:36.536Z,77198.13
2018-12-24T02:36:02.823Z,77204.14
2018-12-24T02:38:28.758Z,77205.14
2018-12-24T02:40:54.650Z,77210.14
2018-12-24T02:43:24.717Z,77211.14
2018-12-24T02:45:50.636Z,77210.14
2018-12-24T02:48:19.350Z,77211.14
2018-12-24T02:50:48.367Z,77217.16
2018-12-24T02:53:17.301Z,77223.16
2018-12-24T02:55:46.211Z,77230.16
2018-12-24T02:58:14.919Z,77235.17
2018-12-24T03:00:43.888Z,77244.17
2018-12-24T03:03:09.827Z,77246.17
2018-12-24T03:05:38.808Z,77251.18
2018-12-24T03:08:07.708Z,77255.19
2018-12-24T03:10:36.693Z,77261.19
2018-12-24T03:13:05.597Z,77266.20
2018-12-24T03:15:34.627Z,77272.20
2018-12-24T03:18:03.706Z,77278.20
2018-12-24T03:20:32.571Z,77279.20
2018-12-24T03:22:58.491Z,77276.20
2018-12-24T03:25:27.462Z,77284.21
2018-12-24T03:27:56.424Z,77284.21
2018-12-24T03:30:25.308Z,77284.21
2018-12-24T03:32:51.714Z,77284.21
2018-12-24T03:35:20.670Z,77293.22
2018-12-24T03:37:49.652Z,77293.22
2018-12-24T03:40:18.582Z,77298.23
2018-12-24T03:42:47.494Z,77298.23
2018-12-24T03:45:16.418Z,77305.23
2018-12-24T03:47:45.371Z,77313.23
2018-12-24T03:50:14.333Z,77316.24
2018-12-24T03:52:43.762Z,77319.25
2018-12-24T03:55:12.416Z,77326.25
2018-12-24T03:57:41.532Z,77326.25
2018-12-24T04:00:07.858Z,77324.25
2018-12-24T04:02:36.936Z,77324.25
2018-12-24T04:05:05.833Z,77331.26
2018-12-24T04:07:35.333Z,77339.27
2018-12-24T04:10:03.965Z,77343.27
2018-12-24T04:12:33.026Z,77341.27
2018-12-24T04:14:58.920Z,77347.27
2018-12-24T04:17:24.821Z,77349.27
2018-12-24T04:19:50.720Z,77361.28
2018-12-24T04:22:19.635Z,77365.29
2018-12-24T04:24:45.542Z,77365.29
2018-12-24T04:27:11.441Z,77368.29
2018-12-24T04:29:37.370Z,77372.30
2018-12-24T04:32:03.659Z,77378.30
2018-12-24T04:34:32.348Z,77380.30
2018-12-24T04:36:58.285Z,77396.32
2018-12-24T04:39:30.223Z,77410.33
2018-12-24T04:41:56.157Z,77413.34
2018-12-24T04:44:25.101Z,77426.34
2018-12-24T04:46:57.816Z,77441.36
2018-12-24T04:49:26.794Z,77454.38
2018-12-24T04:51:55.759Z,77451.38
2018-12-24T04:54:24.725Z,77455.38
2018-12-24T04:56:55.885Z,77460.38
2018-12-24T04:59:25.100Z,77465.38
2018-12-24T05:01:55.900Z,77465.38
2018-12-24T05:04:22.772Z,77478.40
2018-12-24T05:06:51.426Z,77491.41
2018-12-24T05:09:20.406Z,77491.41
2018-12-24T05:11:49.319Z,77488.41
2018-12-24T05:14:15.209Z,77501.42
2018-12-24T05:16:44.122Z,77499.42
2018-12-24T05:19:10.019Z,77511.43
2018-12-24T05:21:38.751Z,77506.42
2018-12-24T05:24:08.159Z,77523.44
2018-12-24T05:26:36.837Z,77523.44
2018-12-24T05:29:06.323Z,77522.44
2018-12-24T05:31:32.223Z,77531.45
2018-12-24T05:34:01.122Z,77542.46
2018-12-24T05:36:30.096Z,77540.46
2018-12-24T05:38:59.185Z,77553.47
2018-12-24T05:41:28.127Z,77554.47
2018-12-24T05:43:55.930Z,77563.48
2018-12-24T05:46:24.692Z,77566.48
2018-12-24T05:48:54.330Z,77564.48
2018-12-24T05:51:23.301Z,77570.48
2018-12-24T05:53:52.271Z,77583.50
2018-12-24T05:56:21.176Z,77583.50
2018-12-24T05:58:50.115Z,77593.52
2018-12-24T06:01:19.044Z,77581.50
2018-12-24T06:03:47.958Z,77587.51
2018-12-24T06:06:13.867Z,77596.52
2018-12-24T06:08:39.796Z,77600.52
2018-12-24T06:11:05.690Z,77619.54
2018-12-24T06:13:34.714Z,77628.55
2018-12-24T06:16:03.391Z,77629.55
2018-12-24T06:18:32.855Z,77627.55
2018-12-24T06:20:58.744Z,77629.55
2018-12-24T06:23:24.646Z,77645.56
2018-12-24T06:25:53.387Z,77649.57
2018-12-24T06:28:22.080Z,77658.58
2018-12-24T06:30:50.994Z,77660.58
2018-12-24T06:33:19.969Z,77662.58
2018-12-24T06:35:49.337Z,77666.59
2018-12-24T06:38:17.970Z,77671.59
2018-12-24T06:40:43.860Z,77682.61
2018-12-24T06:43:09.777Z,77692.62
2018-12-24T06:45:39.268Z,77701.63
2018-12-24T06:48:07.948Z,77704.63
2018-12-24T06:50:37.043Z,77709.63
2018-12-24T06:53:05.941Z,77709.63
2018-12-24T06:55:35.266Z,77722.65
2018-12-24T06:58:03.938Z,77729.66
2018-12-24T07:00:32.829Z,77731.66
2018-12-24T07:03:00.642Z,77727.66
2018-12-24T07:05:29.327Z,77746.67
2018-12-24T07:07:55.541Z,77748.67
2018-12-24T07:10:24.427Z,77758.69
2018-12-24T07:12:54.788Z,77759.69
2018-12-24T07:15:26.052Z,77763.69
2018-12-24T07:17:55.118Z,77772.70
2018-12-24T07:20:24.158Z,77775.70
2018-12-24T07:22:53.088Z,77786.72
2018-12-24T07:25:22.025Z,77795.73
2018-12-24T07:27:51.190Z,77797.73
2018-12-24T07:30:20.088Z,77795.73
2018-12-24T07:32:46.963Z,77801.73
2018-12-24T07:35:12.861Z,77803.73
2018-12-24T07:37:42.164Z,77813.75
2018-12-24T07:40:10.830Z,77813.75
2018-12-24T07:42:39.893Z,77825.76
2018-12-24T07:45:08.809Z,77826.76
2018-12-24T07:47:34.694Z,77831.77
2018-12-24T07:50:00.584Z,77845.78
2018-12-24T07:52:26.910Z,77855.79
2018-12-24T07:54:52.803Z,77854.79
2018-12-24T07:57:19.069Z,77860.80
2018-12-24T07:59:44.966Z,77867.80
2018-12-24T08:02:10.871Z,77867.80
2018-12-24T08:04:36.766Z,77871.81
2018-12-24T08:07:02.663Z,77883.83
2018-12-24T08:09:28.597Z,77885.83
2018-12-24T08:11:57.261Z,77895.84
2018-12-24T08:14:32.922Z,77905.84
2018-12-24T08:16:57.093Z,77910.85
2018-12-24T08:19:23.036Z,77907.84
2018-12-24T08:21:51.933Z,77914.86
2018-12-24T08:24:17.866Z,77904.84
2018-12-24T08:26:46.513Z,77925.87
2018-12-24T08:29:12.442Z,77925.87
2018-12-24T08:31:41.350Z,77940.88
2018-12-24T08:34:07.920Z,77944.89
2018-12-24T08:36:36.649Z,77952.90
2018-12-24T08:39:04.236Z,77949.89
2018-12-24T08:41:30.144Z,77963.91
2018-12-24T08:43:56.033Z,77967.92
2018-12-24T08:46:24.747Z,77962.91
2018-12-24T08:48:50.631Z,77965.91
2018-12-24T08:51:16.681Z,77970.92
2018-12-24T08:53:45.832Z,77971.92
2018-12-24T08:56:14.525Z,77973.92
2018-12-24T08:58:40.430Z,77969.92
2018-12-24T09:01:09.129Z,77971.92
2018-12-24T09:03:38.596Z,77982.94
2018-12-24T09:06:07.345Z,77989.94
2018-12-24T09:08:33.237Z,77986.94
2018-12-24T09:11:02.451Z,77991.94
2018-12-24T09:13:28.353Z,78000.95
2018-12-24T09:15:57.415Z,77998.95
2018-12-24T09:18:26.317Z,78003.95
2018-12-24T09:20:55.597Z,78010.97
2018-12-24T09:23:27.622Z,78010.97
2018-12-24T09:25:56.576Z,78011.97
2018-12-24T09:28:25.946Z,78015.97
2018-12-24T09:30:55.367Z,78026.98
2018-12-24T09:33:21.272Z,78030.98
2018-12-24T09:35:49.941Z,78031.98
2018-12-24T09:38:18.991Z,78030.98
2018-12-24T09:40:47.914Z,78033.98
2018-12-24T09:43:16.919Z,78032.98
2018-12-24T09:45:45.820Z,78048.00
2018-12-24T09:48:14.771Z,78048.00
2018-12-24T09:50:43.705Z,78044.00
2018-12-24T09:53:12.668Z,78042.00
2018-12-24T09:55:41.673Z,78045.00
2018-12-24T09:58:10.940Z,78065.03
2018-12-24T10:00:39.727Z,78066.03
2018-12-24T10:03:08.487Z,78069.03
2018-12-24T10:05:37.580Z,78075.04
2018-12-24T10:08:05.420Z,78082.05
2018-12-24T10:10:34.501Z,78084.05
2018-12-24T10:13:03.447Z,78085.05
2018-12-24T10:15:32.572Z,78087.05
2018-12-24T10:18:01.575Z,78076.04
2018-12-24T10:20:30.593Z,78091.06
2018-12-24T10:22:59.456Z,78078.05
2018-12-24T10:25:28.422Z,78074.04
2018-12-24T10:28:00.454Z,78080.05
2018-12-24T10:30:29.404Z,78074.04
2018-12-24T10:32:58.561Z,78094.06
2018-12-24T10:35:27.471Z,78095.06
2018-12-24T10:37:56.568Z,78095.06
2018-12-24T10:40:22.468Z,78094.06
2018-12-24T10:42:48.740Z,78088.05
2018-12-24T10:45:16.710Z,78100.06
2018-12-24T10:47:42.387Z,78092.06
2018-12-24T10:50:08.281Z,78098.06
2018-12-24T10:52:34.191Z,78099.06
2018-12-24T10:55:00.164Z,78103.07
2018-12-24T10:57:26.167Z,78106.08
2018-12-24T10:59:54.820Z,78089.05
2018-12-24T11:02:25.836Z,78104.07
2018-12-24T11:04:54.602Z,78111.08
2018-12-24T11:07:25.655Z,78113.08
2018-12-24T11:09:54.566Z,78115.09
2018-12-24T11:12:23.228Z,78104.07
2018-12-24T11:14:52.212Z,78094.06
2018-12-24T11:17:20.879Z,78100.06
2018-12-24T11:19:49.955Z,78103.07
2018-12-24T11:22:18.610Z,78113.08
2018-12-24T11:24:47.504Z,78108.08
2018-12-24T11:27:13.398Z,78116.09
2018-12-24T11:29:39.285Z,78116.09
2018-12-24T11:32:05.189Z,78111.08
2018-12-24T11:34:31.141Z,78122.09
2018-12-24T11:36:57.043Z,78127.09
2018-12-24T11:39:22.944Z,78119.09
2018-12-24T11:41:48.841Z,78124.09
2018-12-24T11:44:14.734Z,78125.09
2018-12-24T11:46:40.660Z,78134.11
2018-12-24T11:49:09.368Z,78126.09
2018-12-24T11:51:38.466Z,78134.11
2018-12-24T11:54:07.435Z,78140.11
2018-12-24T11:56:36.371Z,78136.11
2018-12-24T11:59:05.329Z,78139.11
2018-12-24T12:01:34.329Z,78138.11
2018-12-24T12:04:03.607Z,78135.11
2018-12-24T12:06:29.529Z,78134.11
2018-12-24T12:08:55.414Z,78132.11
2018-12-24T12:11:21.364Z,78146.13
2018-12-24T12:13:50.058Z,78147.13
2018-12-24T12:16:18.979Z,78148.13
2018-12-24T12:18:47.937Z,78151.13
2018-12-24T12:21:16.972Z,78148.13
2018-12-24T12:23:45.689Z,78154.13
2018-12-24T12:26:14.830Z,78158.13
2018-12-24T12:28:40.731Z,78157.13
2018-12-24T12:31:09.645Z,78163.14
2018-12-24T12:33:38.990Z,78164.14
2018-12-24T12:36:04.927Z,78169.15
2018-12-24T12:38:30.820Z,78171.16
2018-12-24T12:40:56.723Z,78172.16
2018-12-24T12:43:25.560Z,78180.16
2018-12-24T12:45:54.477Z,78176.16
2018-12-24T12:48:24.095Z,78183.16
2018-12-24T12:50:52.867Z,78180.16
2018-12-24T12:53:21.854Z,78190.17
2018-12-24T12:55:50.787Z,78188.17
2018-12-24T12:58:19.686Z,78191.17
2018-12-24T13:00:45.623Z,78189.17
2018-12-24T13:03:14.724Z,78189.17
2018-12-24T13:05:43.402Z,78201.19
2018-12-24T13:08:12.471Z,78192.17
2018-12-24T13:10:41.363Z,78194.18
2018-12-24T13:13:10.414Z,78196.18
2018-12-24T13:15:39.676Z,78203.19
2018-12-24T13:18:08.344Z,78208.20
2018-12-24T13:20:37.017Z,78205.19
2018-12-24T13:23:05.970Z,78212.20
2018-12-24T13:25:34.886Z,78225.22
2018-12-24T13:28:03.808Z,78224.22
2018-12-24T13:30:32.958Z,78224.22
2018-12-24T13:33:01.638Z,78224.22
2018-12-24T13:35:30.830Z,78233.22
2018-12-24T13:37:59.494Z,78236.23
2018-12-24T13:40:28.678Z,78243.23
2018-12-24T13:42:57.969Z,78249.24
2018-12-24T13:45:27.318Z,78248.24
2018-12-24T13:47:56.240Z,78252.25
2018-12-24T13:50:25.289Z,78258.25
2018-12-24T13:52:51.311Z,78262.27
2018-12-24T13:55:20.325Z,78267.27
2018-12-24T13:57:49.231Z,78255.25
2018-12-24T14:00:15.128Z,78264.27
2018-12-24T14:02:41.025Z,78266.27
2018-12-24T14:05:09.963Z,78269.27
2018-12-24T14:07:39.252Z,78272.27
2018-12-24T14:10:08.129Z,78264.27
2018-12-24T14:12:37.046Z,78281.28
2018-12-24T14:15:06.198Z,78281.28
2018-12-24T14:17:35.451Z,78286.29
2018-12-24T14:20:05.000Z,78284.29
2018-12-24T14:22:33.666Z,78282.28
2018-12-24T14:25:02.759Z,78278.28
2018-12-24T14:27:31.737Z,78283.28
2018-12-24T14:30:00.716Z,78284.29
2018-12-24T14:32:29.677Z,78278.28
2018-12-24T14:34:55.570Z,78285.29
2018-12-24T14:37:27.301Z,78280.28
2018-12-24T14:39:56.206Z,78283.28
2018-12-24T14:42:25.319Z,78286.29
2018-12-24T14:44:57.331Z,78286.29
2018-12-24T14:47:23.237Z,78290.30
2018-12-24T14:49:52.153Z,78290.30
2018-12-24T14:52:18.378Z,78292.30
2018-12-24T14:54:44.275Z,78296.30
2018-12-24T14:57:10.164Z,78295.30
2018-12-24T14:59:36.075Z,78294.30
2018-12-24T15:02:02.372Z,78298.30
2018-12-24T15:04:28.253Z,78314.33
2018-12-24T15:06:57.342Z,78314.33
2018-12-24T15:09:25.816Z,78318.33
2018-12-24T15:11:51.694Z,78323.34
2018-12-24T15:14:17.582Z,78338.35
2018-12-24T15:16:46.511Z,78337.35
2018-12-24T15:19:15.442Z,78339.36
2018-12-24T15:21:44.491Z,78339.36
2018-12-24T15:24:10.389Z,78338.35
2018-12-24T15:26:39.093Z,78340.36
2018-12-24T15:29:04.989Z,78341.36
2018-12-24T15:31:33.948Z,78348.36
2018-12-24T15:34:02.911Z,78342.36
2018-12-24T15:36:29.654Z,78353.38
2018-12-24T15:38:58.648Z,78352.38
2018-12-24T15:41:27.575Z,78353.38
2018-12-24T15:43:56.508Z,78356.38
2018-12-24T15:46:25.435Z,78355.38
2018-12-24T15:48:57.362Z,78349.37
2018-12-24T15:51:23.266Z,78340.36
2018-12-24T15:53:49.152Z,78340.36
2018-12-24T15:56:18.066Z,78348.36
2018-12-24T15:58:43.963Z,78346.36
2018-12-24T16:01:12.902Z,78348.36
2018-12-24T16:03:42.016Z,78346.36
2018-12-24T16:06:10.943Z,78352.38
2018-12-24T16:08:36.872Z,78345.36
2018-12-24T16:11:02.770Z,78349.37
2018-12-24T16:13:28.736Z,78352.38
2018-12-24T16:15:54.620Z,78360.38
2018-12-24T16:18:20.519Z,78363.39
2018-12-24T16:20:46.447Z,78355.38
2018-12-24T16:23:15.377Z,78343.36
2018-12-24T16:25:44.112Z,78339.36
2018-12-24T16:28:12.777Z,78347.36
2018-12-24T16:30:39.107Z,78348.36
2018-12-24T16:33:05.005Z,78346.36
2018-12-24T16:35:30.975Z,78345.36
2018-12-24T16:37:56.946Z,78347.36
2018-12-24T16:40:25.835Z,78347.36
2018-12-24T16:42:51.774Z,78342.36
2018-12-24T16:45:20.879Z,78338.35
2018-12-24T16:47:49.789Z,78338.35
2018-12-24T16:50:18.926Z,78338.35
2018-12-24T16:52:47.824Z,78335.34
2018-12-24T16:55:16.855Z,78326.34
2018-12-24T16:57:45.768Z,78346.36
2018-12-24T17:00:12.172Z,78354.38
2018-12-24T17:02:41.129Z,78348.36
2018-12-24T17:05:10.141Z,78355.38
2018-12-24T17:07:36.072Z,78338.35
2018-12-24T17:10:06.094Z,78341.36
2018-12-24T17:12:34.809Z,78342.36
2018-12-24T17:15:03.942Z,78366.39
2018-12-24T17:17:29.843Z,78388.41
2018-12-24T17:19:55.736Z,78388.41
2018-12-24T17:22:24.644Z,78377.41
2018-12-24T17:24:55.728Z,78376.41
2018-12-24T17:27:24.989Z,78383.41
2018-12-24T17:29:54.199Z,78390.42
2018-12-24T17:32:22.908Z,78390.42
2018-12-24T17:34:48.855Z,78387.41
2018-12-24T17:37:15.154Z,78380.41
2018-12-24T17:39:44.044Z,78387.41
2018-12-24T17:42:12.955Z,78397.42
2018-12-24T17:44:42.153Z,78393.42
2018-12-24T17:47:16.098Z,78384.41
2018-12-24T17:49:38.640Z,78375.40
2018-12-24T17:52:07.569Z,78375.40
2018-12-24T17:54:36.634Z,78374.40
2018-12-24T17:57:02.908Z,78373.40
2018-12-24T17:59:29.158Z,78374.40
2018-12-24T18:01:55.160Z,78384.41
2018-12-24T18:04:27.126Z,78381.41
2018-12-24T18:06:56.043Z,78384.41
2018-12-24T18:09:25.059Z,78384.41
2018-12-24T18:11:56.238Z,78387.41
2018-12-24T18:14:22.119Z,78386.41
2018-12-24T18:16:48.015Z,78382.41
2018-12-24T18:19:17.266Z,78382.41
2018-12-24T18:21:43.156Z,78393.42
2018-12-24T18:24:11.812Z,78393.42
2018-12-24T18:26:37.723Z,78387.41
2018-12-24T18:29:03.623Z,78382.41
2018-12-24T18:31:32.874Z,78374.40
2018-12-24T18:33:58.775Z,78383.41
2018-12-24T18:36:25.592Z,78374.40
2018-12-24T18:38:51.837Z,78378.41
2018-12-24T18:41:20.857Z,78379.41
2018-12-24T18:43:49.741Z,78378.41
2018-12-24T18:46:15.637Z,78376.41
2018-12-24T18:48:41.539Z,78365.39
2018-12-24T18:51:07.437Z,78366.39
2018-12-24T18:53:36.356Z,78354.38
2018-12-24T18:56:02.252Z,78363.39
2018-12-24T18:58:28.157Z,78367.39
2018-12-24T19:00:56.046Z,78364.39
2018-12-24T19:03:24.845Z,78360.38
2018-12-24T19:05:50.745Z,78355.38
2018-12-24T19:08:19.839Z,78350.37
2018-12-24T19:10:45.732Z,78354.38
2018-12-24T19:13:11.635Z,78352.38
2018-12-24T19:15:40.528Z,78355.38
2018-12-24T19:18:06.421Z,78354.38
2018-12-24T19:20:35.359Z,78360.38
2018-12-24T19:23:04.021Z,78350.37
2018-12-24T19:25:32.986Z,78352.38
2018-12-24T19:28:01.901Z,78353.38
2018-12-24T19:30:27.829Z,78355.38
2018-12-24T19:32:56.745Z,78360.38
2018-12-24T19:35:22.681Z,78361.38
2018-12-24T19:37:48.621Z,78364.39
2018-12-24T19:40:17.559Z,78368.39
2018-12-24T19:42:46.489Z,78373.40
2018-12-24T19:45:15.519Z,78370.39
2018-12-24T19:47:49.866Z,78376.41
2018-12-24T19:50:15.168Z,78372.39
2018-12-24T19:52:41.039Z,78383.41
2018-12-24T19:55:10.177Z,78389.42
2018-12-24T19:57:38.902Z,78388.41
2018-12-24T20:00:08.000Z,78396.42
2018-12-24T20:02:37.254Z,78394.42
2018-12-24T20:05:06.076Z,78392.42
2018-12-24T20:07:31.969Z,78401.44
2018-12-24T20:10:01.495Z,78402.44
2018-12-24T20:12:30.160Z,78393.42
2018-12-24T20:14:59.377Z,78396.42
2018-12-24T20:17:28.322Z,78391.42
2018-12-24T20:20:00.353Z,78397.42
2018-12-24T20:22:29.334Z,78392.42
2018-12-24T20:24:58.696Z,78392.42
2018-12-24T20:27:27.505Z,78396.42
2018-12-24T20:29:56.430Z,78400.43
2018-12-24T20:32:25.595Z,78398.43
2018-12-24T20:34:54.503Z,78396.42
2018-12-24T20:37:20.800Z,78399.43
2018-12-24T20:39:49.729Z,78396.42
2018-12-24T20:42:18.868Z,78394.42
2018-12-24T20:44:47.804Z,78397.42
2018-12-24T20:47:16.920Z,78396.42
2018-12-24T20:49:45.828Z,78399.43
2018-12-24T20:52:15.195Z,78390.42
2018-12-24T20:54:44.105Z,78391.42
2018-12-24T20:57:10.367Z,78388.41
2018-12-24T20:59:39.697Z,78380.41
2018-12-24T21:02:08.921Z,78380.41
2018-12-24T21:04:35.186Z,78379.41
2018-12-24T21:07:01.443Z,78384.41
2018-12-24T21:09:30.077Z,78383.41
2018-12-24T21:11:56.022Z,78378.41
2018-12-24T21:14:21.925Z,78376.41
2018-12-24T21:16:48.205Z,78367.39
2018-12-24T21:19:17.331Z,78371.39
2018-12-24T21:21:43.228Z,78369.39
2018-12-24T21:24:09.533Z,78368.39
2018-12-24T21:26:35.419Z,78374.40
2018-12-24T21:29:04.326Z,78366.39
2018-12-24T21:31:30.222Z,78368.39
2018-12-24T21:33:59.112Z,78356.38
2018-12-24T21:36:25.014Z,78355.38
2018-12-24T21:38:50.904Z,78356.38
2018-12-24T21:41:16.808Z,78359.38
2018-12-24T21:43:42.714Z,78355.38
2018-12-24T21:46:08.628Z,78358.38
2018-12-24T21:48:34.510Z,78356.38
2018-12-24T21:51:03.674Z,78357.38
2018-12-24T21:53:32.590Z,78350.37
2018-12-24T21:56:02.138Z,78344.36
2018-12-24T21:58:30.848Z,78344.36
2018-12-24T22:00:59.863Z,78341.36
2018-12-24T22:03:28.776Z,78339.36
2018-12-24T22:05:54.725Z,78335.34
2018-12-24T22:08:26.151Z,78334.34
2018-12-24T22:10:52.043Z,78336.35
2018-12-24T22:13:21.373Z,78346.36
2018-12-24T22:15:47.430Z,78359.38
2018-12-24T22:18:16.124Z,78366.39
2018-12-24T22:20:45.217Z,78359.38
2018-12-24T22:23:11.160Z,78359.38
2018-12-24T22:25:40.200Z,78370.39
2018-12-24T22:28:09.593Z,78354.38
2018-12-24T22:30:38.463Z,78364.39
2018-12-24T22:33:07.440Z,78362.38
2018-12-24T22:35:33.379Z,78368.39
2018-12-24T22:38:00.052Z,78364.39
2018-12-24T22:40:25.954Z,78368.39
2018-12-24T22:42:55.012Z,78364.39
2018-12-24T22:45:25.941Z,78364.39
2018-12-24T22:47:55.041Z,78372.39
2018-12-24T22:50:20.924Z,78367.39
2018-12-24T22:52:49.865Z,78366.39
2018-12-24T22:55:18.828Z,78354.38
2018-12-24T22:57:48.111Z,78356.38
2018-12-24T23:00:19.087Z,78352.38
2018-12-24T23:02:48.027Z,78350.37
2018-12-24T23:05:17.203Z,78351.37
2018-12-24T23:07:43.106Z,78348.36
2018-12-24T23:10:11.935Z,78348.36
2018-12-24T23:12:40.636Z,78340.36
2018-12-24T23:15:09.804Z,78340.36
2018-12-24T23:17:38.717Z,78340.36
2018-12-24T23:20:08.032Z,78344.36
2018-12-24T23:22:36.928Z,78340.36
2018-12-24T23:25:06.022Z,78337.35
2018-12-24T23:27:31.927Z,78337.35
2018-12-24T23:30:01.031Z,78339.36
2018-12-24T23:32:29.968Z,78350.37
2018-12-24T23:34:59.043Z,78341.36
2018-12-24T23:37:28.014Z,78346.36
2018-12-24T23:39:56.699Z,78339.36
2018-12-24T23:42:25.365Z,78338.35
2018-12-24T23:44:57.455Z,78344.36
2018-12-24T23:47:23.351Z,78344.36
2018-12-24T23:49:52.310Z,78346.36
2018-12-24T23:52:21.242Z,78344.36
2018-12-24T23:54:47.184Z,78342.36
2018-12-24T23:57:13.082Z,78343.36
2018-12-24T23:59:42.607Z,78344.36
